createdAt,value
2022-08-26T00:03:00.269Z,10.27
2022-08-26T00:06:04.274Z,10.82
2022-08-26T00:09:09.058Z,10.20
2022-08-26T00:12:13.591Z,10.30
2022-08-26T00:15:20.210Z,11.15
2022-08-26T00:18:24.930Z,11.43
2022-08-26T00:21:29.945Z,10.38
2022-08-26T00:24:34.181Z,10.55
2022-08-26T00:27:39.616Z,10.93
2022-08-26T00:30:47.955Z,10.40
2022-08-26T00:33:55.598Z,11.07
2022-08-26T00:37:00.403Z,10.43
2022-08-26T00:40:07.636Z,10.85
2022-08-26T00:43:16.011Z,11.38
2022-08-26T00:46:25.265Z,10.88
2022-08-26T00:49:39.621Z,11.00
2022-08-26T00:52:44.729Z,10.68
2022-08-26T00:56:01.520Z,10.65
2022-08-26T00:59:08.638Z,10.85
2022-08-26T01:02:21.151Z,12.20
2022-08-26T01:05:25.692Z,10.38
2022-08-26T01:08:30.034Z,11.52
2022-08-26T01:11:34.768Z,11.43
2022-08-26T01:14:40.986Z,11.10
2022-08-26T01:17:50.812Z,11.60
2022-08-26T01:21:24.970Z,11.73
2022-08-26T01:24:30.799Z,11.98
2022-08-26T01:27:35.367Z,11.35
2022-08-26T01:30:40.837Z,11.38
2022-08-26T01:33:52.392Z,11.70
2022-08-26T01:37:19.764Z,10.95
2022-08-26T01:40:29.673Z,12.00
2022-08-26T01:43:34.345Z,11.02
2022-08-26T01:46:38.557Z,10.85
2022-08-26T01:49:44.604Z,10.45
2022-08-26T01:52:54.693Z,10.48
2022-08-26T01:56:02.229Z,10.95
2022-08-26T01:59:10.909Z,10.57
2022-08-26T02:02:17.129Z,11.35
2022-08-26T02:05:22.100Z,11.75
2022-08-26T02:08:32.646Z,12.32
2022-08-26T02:11:37.009Z,10.63
2022-08-26T02:14:50.135Z,10.93
2022-08-26T02:17:55.615Z,10.95
2022-08-26T02:21:01.824Z,11.20
2022-08-26T02:24:13.116Z,12.00
2022-08-26T02:27:19.558Z,11.55
2022-08-26T02:30:26.867Z,11.65
2022-08-26T02:33:32.027Z,10.52
2022-08-26T02:36:36.753Z,11.30
2022-08-26T02:39:41.940Z,11.15
2022-08-26T02:42:46.229Z,10.90
2022-08-26T02:45:50.252Z,11.32
2022-08-26T02:48:54.868Z,11.68
2022-08-26T02:52:02.005Z,11.48
2022-08-26T02:55:07.066Z,11.25
2022-08-26T02:58:11.405Z,11.93
2022-08-26T03:01:25.624Z,11.60
2022-08-26T03:04:31.066Z,11.60
2022-08-26T03:07:37.948Z,12.40
2022-08-26T03:10:41.681Z,11.88
2022-08-26T03:13:45.835Z,12.20
2022-08-26T03:16:52.353Z,12.00
2022-08-26T03:19:57.279Z,11.77
2022-08-26T03:23:01.280Z,12.70
2022-08-26T03:26:07.152Z,11.98
2022-08-26T03:29:33.282Z,12.65
2022-08-26T03:32:37.450Z,12.85
2022-08-26T03:35:43.560Z,12.40
2022-08-26T03:38:47.253Z,12.57
2022-08-26T03:41:52.397Z,12.52
2022-08-26T03:44:57.218Z,12.10
2022-08-26T03:48:01.092Z,12.65
2022-08-26T03:51:12.480Z,12.77
2022-08-26T03:54:16.352Z,13.18
2022-08-26T03:57:20.753Z,12.68
2022-08-26T04:00:26.912Z,13.15
2022-08-26T04:03:49.413Z,13.32
2022-08-26T04:06:58.317Z,12.27
2022-08-26T04:10:02.496Z,13.27
2022-08-26T04:13:06.720Z,13.55
2022-08-26T04:16:10.853Z,13.02
2022-08-26T04:19:16.027Z,12.98
2022-08-26T04:22:24.184Z,12.50
2022-08-26T04:25:29.308Z,13.18
2022-08-26T04:28:33.339Z,14.35
2022-08-26T04:31:38.127Z,14.10
2022-08-26T04:34:42.044Z,14.77
2022-08-26T04:37:45.853Z,14.35
2022-08-26T04:40:49.514Z,14.50
2022-08-26T04:43:53.561Z,13.88
2022-08-26T04:46:58.598Z,13.57
2022-08-26T04:50:03.062Z,14.40
2022-08-26T04:53:07.438Z,15.20
2022-08-26T04:56:12.377Z,14.30
2022-08-26T04:59:18.128Z,14.27
2022-08-26T05:02:22.557Z,14.93
2022-08-26T05:05:27.464Z,14.80
2022-08-26T05:08:31.429Z,14.77
2022-08-26T05:11:36.087Z,14.70
2022-08-26T05:14:41.395Z,14.52
2022-08-26T05:17:45.205Z,15.30
2022-08-26T05:20:53.885Z,13.57
2022-08-26T05:23:58.943Z,13.38
2022-08-26T05:27:03.562Z,13.60
2022-08-26T05:30:15.697Z,14.35
2022-08-26T05:33:20.102Z,14.93
2022-08-26T05:36:27.425Z,14.32
2022-08-26T05:39:33.027Z,13.75
2022-08-26T05:42:36.878Z,13.50
2022-08-26T05:45:49.121Z,14.75
2022-08-26T05:48:55.165Z,13.70
2022-08-26T05:51:59.139Z,14.75
2022-08-26T05:55:04.511Z,14.48
2022-08-26T05:58:08.438Z,15.05
2022-08-26T06:01:17.655Z,14.52
2022-08-26T06:04:23.005Z,14.55
2022-08-26T06:07:50.319Z,14.25
2022-08-26T06:10:59.186Z,14.57
2022-08-26T06:14:05.338Z,13.63
2022-08-26T06:17:09.606Z,15.05
2022-08-26T06:20:14.105Z,15.05
2022-08-26T06:23:37.292Z,15.02
2022-08-26T06:26:53.957Z,14.50
2022-08-26T06:29:57.760Z,15.65
2022-08-26T06:33:01.743Z,16.25
2022-08-26T06:36:06.764Z,15.93
2022-08-26T06:39:13.671Z,15.25
2022-08-26T06:42:18.248Z,16.33
2022-08-26T06:45:22.694Z,15.52
2022-08-26T06:48:26.895Z,16.00
2022-08-26T06:51:34.566Z,15.52
2022-08-26T06:54:43.010Z,15.10
2022-08-26T06:57:47.295Z,15.55
2022-08-26T07:00:51.624Z,15.50
2022-08-26T07:03:58.928Z,16.35
2022-08-26T07:07:03.492Z,15.00
2022-08-26T07:10:08.643Z,14.70
2022-08-26T07:13:12.644Z,14.25
2022-08-26T07:16:18.126Z,13.48
2022-08-26T07:19:29.950Z,15.05
2022-08-26T07:22:37.019Z,15.07
2022-08-26T07:25:42.212Z,13.23
2022-08-26T07:28:50.546Z,14.27
2022-08-26T07:31:58.269Z,14.82
2022-08-26T07:35:02.137Z,13.82
2022-08-26T07:38:06.379Z,14.48
2022-08-26T07:41:13.273Z,14.65
2022-08-26T07:44:17.592Z,14.13
2022-08-26T07:47:25.167Z,13.68
2022-08-26T07:50:48.864Z,12.50
2022-08-26T07:53:53.498Z,12.48
2022-08-26T07:56:57.225Z,12.02
2022-08-26T08:00:02.762Z,13.20
2022-08-26T08:03:07.179Z,11.45
2022-08-26T08:06:12.248Z,11.85
2022-08-26T08:09:16.442Z,12.98
2022-08-26T08:12:20.882Z,12.88
2022-08-26T08:15:27.802Z,11.70
2022-08-26T08:18:32.029Z,12.55
2022-08-26T08:21:36.207Z,11.85
2022-08-26T08:24:40.336Z,11.68
2022-08-26T08:27:45.229Z,12.23
2022-08-26T08:30:49.756Z,12.25
2022-08-26T08:33:53.920Z,11.32
2022-08-26T08:36:58.232Z,13.25
2022-08-26T08:40:04.351Z,12.80
2022-08-26T08:43:14.738Z,13.63
2022-08-26T08:46:20.100Z,13.23
2022-08-26T08:49:25.875Z,12.23
2022-08-26T08:52:35.287Z,13.00
2022-08-26T08:55:49.771Z,13.73
2022-08-26T08:59:15.185Z,12.55
2022-08-26T09:03:01.649Z,12.35
2022-08-26T09:06:16.905Z,12.70
2022-08-26T09:09:32.844Z,11.98
2022-08-26T09:12:37.155Z,11.63
2022-08-26T09:15:54.575Z,12.23
2022-08-26T09:19:41.329Z,11.02
2022-08-26T09:22:45.920Z,11.00
2022-08-26T09:25:49.997Z,11.65
2022-08-26T09:28:58.459Z,10.30
2022-08-26T09:32:25.015Z,10.80
2022-08-26T09:35:52.230Z,11.30
2022-08-26T09:38:56.140Z,11.50
2022-08-26T09:42:19.105Z,9.48
2022-08-26T09:45:28.310Z,9.60
2022-08-26T09:48:40.520Z,10.32
2022-08-26T09:51:45.335Z,10.13
2022-08-26T09:55:02.245Z,10.75
2022-08-26T09:58:09.371Z,9.35
2022-08-26T10:01:45.914Z,9.93
2022-08-26T10:04:53.976Z,9.18
2022-08-26T10:07:59.565Z,9.95
2022-08-26T10:11:26.555Z,8.55
2022-08-26T10:14:49.818Z,9.05
2022-08-26T10:18:24.686Z,9.07
2022-08-26T10:21:38.926Z,9.38
2022-08-26T10:24:49.845Z,8.20
2022-08-26T10:28:09.103Z,8.05
2022-08-26T10:31:27.552Z,8.23
2022-08-26T10:34:33.279Z,8.52
2022-08-26T10:37:41.553Z,8.10
2022-08-26T10:41:09.752Z,8.02
2022-08-26T10:44:18.100Z,6.97
2022-08-26T10:47:31.444Z,7.95
2022-08-26T10:50:41.627Z,7.10
2022-08-26T10:53:55.775Z,7.72
2022-08-26T10:57:12.729Z,7.47
2022-08-26T11:00:41.522Z,8.13
2022-08-26T11:04:45.759Z,7.80
2022-08-26T11:08:12.902Z,7.50
2022-08-26T11:11:41.933Z,7.10
2022-08-26T11:14:53.393Z,6.85
2022-08-26T11:18:10.035Z,6.63
2022-08-26T11:21:49.573Z,7.07
2022-08-26T11:24:54.704Z,7.13
2022-08-26T11:28:00.557Z,6.45
2022-08-26T11:31:08.766Z,6.22
2022-08-26T11:34:14.066Z,6.07
2022-08-26T11:40:33.764Z,6.63
2022-08-26T11:43:39.804Z,6.90
2022-08-26T11:46:52.747Z,6.65
2022-08-26T11:50:17.043Z,6.65
2022-08-26T11:53:22.548Z,6.65
2022-08-26T11:56:33.916Z,6.70
2022-08-26T11:59:40.163Z,6.07
2022-08-26T12:02:44.694Z,6.22
2022-08-26T12:05:52.069Z,7.43
2022-08-26T12:09:01.497Z,6.50
2022-08-26T12:12:15.236Z,4.25
2022-08-26T12:15:22.668Z,4.22
2022-08-26T12:18:31.419Z,4.57
2022-08-26T12:21:35.480Z,4.75
2022-08-26T12:24:45.527Z,5.40
2022-08-26T12:27:53.743Z,6.20
2022-08-26T12:31:01.015Z,6.53
2022-08-26T12:34:17.685Z,6.63
2022-08-26T12:37:22.514Z,7.50
2022-08-26T12:40:43.816Z,6.53
2022-08-26T12:43:48.185Z,7.20
2022-08-26T12:46:52.328Z,7.55
2022-08-26T12:50:09.959Z,7.93
2022-08-26T12:53:22.407Z,8.27
2022-08-26T12:56:29.162Z,8.38
2022-08-26T12:59:32.931Z,8.57
2022-08-26T13:02:38.637Z,9.40
2022-08-26T13:05:42.515Z,9.07
2022-08-26T13:09:02.633Z,9.45
2022-08-26T13:12:06.482Z,7.80
2022-08-26T13:15:10.480Z,7.93
2022-08-26T13:18:14.410Z,9.70
2022-08-26T13:21:24.878Z,9.00
2022-08-26T13:24:34.134Z,9.00
2022-08-26T13:27:38.242Z,9.60
2022-08-26T13:30:45.723Z,9.13
2022-08-26T13:33:49.724Z,8.70
2022-08-26T13:36:56.259Z,7.53
2022-08-26T13:40:00.343Z,7.35
2022-08-26T13:43:04.767Z,6.97
2022-08-26T13:46:09.187Z,8.02
2022-08-26T13:49:13.644Z,7.05
2022-08-26T13:52:17.887Z,6.80
2022-08-26T13:55:34.417Z,7.45
2022-08-26T13:58:38.068Z,7.35
2022-08-26T14:01:42.192Z,7.70
2022-08-26T14:04:46.296Z,9.00
2022-08-26T14:07:50.276Z,9.27
2022-08-26T14:10:54.369Z,9.43
2022-08-26T14:13:58.670Z,9.23
2022-08-26T14:17:03.211Z,9.88
2022-08-26T14:20:09.701Z,9.55
2022-08-26T14:23:14.561Z,10.00
2022-08-26T14:26:27.948Z,10.35
2022-08-26T14:29:33.778Z,10.10
2022-08-26T14:32:42.823Z,10.57
2022-08-26T14:35:47.184Z,9.18
2022-08-26T14:38:54.497Z,8.55
2022-08-26T14:41:59.317Z,8.32
2022-08-26T14:45:06.698Z,7.75
2022-08-26T14:48:11.115Z,8.02
2022-08-26T14:51:15.071Z,7.60
2022-08-26T14:54:20.184Z,7.60
2022-08-26T14:57:24.494Z,6.88
2022-08-26T15:00:29.435Z,6.82
2022-08-26T15:03:33.554Z,5.93
2022-08-26T15:06:38.168Z,6.80
2022-08-26T15:09:42.808Z,6.60
2022-08-26T15:12:47.351Z,7.38
2022-08-26T15:15:51.382Z,6.50
2022-08-26T15:18:56.431Z,6.32
2022-08-26T15:22:00.254Z,5.68
2022-08-26T15:25:08.363Z,5.70
2022-08-26T15:28:12.350Z,5.78
2022-08-26T15:31:16.849Z,5.93
2022-08-26T15:34:21.045Z,6.10
2022-08-26T15:37:25.659Z,5.85
2022-08-26T15:40:29.557Z,5.57
2022-08-26T15:43:33.588Z,5.63
2022-08-26T15:46:39.125Z,5.80
2022-08-26T15:49:43.246Z,5.53
2022-08-26T15:52:47.882Z,6.03
2022-08-26T15:55:54.757Z,6.55
2022-08-26T15:59:01.346Z,5.18
2022-08-26T16:02:05.745Z,5.57
2022-08-26T16:05:10.225Z,6.20
2022-08-26T16:08:15.116Z,5.10
2022-08-26T16:11:19.852Z,5.35
2022-08-26T16:14:24.336Z,5.28
2022-08-26T16:17:28.297Z,5.00
2022-08-26T16:20:34.428Z,5.22
2022-08-26T16:23:38.606Z,5.88
2022-08-26T16:26:44.077Z,4.75
2022-08-26T16:29:48.751Z,5.20
2022-08-26T16:32:52.527Z,5.55
2022-08-26T16:35:56.295Z,5.70
2022-08-26T16:39:00.390Z,6.10
2022-08-26T16:42:04.620Z,5.25
2022-08-26T16:45:09.291Z,5.57
2022-08-26T16:48:13.447Z,5.65
2022-08-26T16:51:19.184Z,5.80
2022-08-26T16:54:23.008Z,5.55
2022-08-26T16:57:27.154Z,5.75
2022-08-26T17:00:33.002Z,5.35
2022-08-26T17:03:37.381Z,5.63
2022-08-26T17:06:41.577Z,6.30
2022-08-26T17:09:45.448Z,5.15
2022-08-26T17:12:50.694Z,5.55
2022-08-26T17:15:58.402Z,5.45
2022-08-26T17:19:05.706Z,5.18
2022-08-26T17:22:10.601Z,6.30
2022-08-26T17:25:19.285Z,5.95
2022-08-26T17:28:23.479Z,5.60
2022-08-26T17:31:27.739Z,5.22
2022-08-26T17:34:32.453Z,5.78
2022-08-26T17:37:36.915Z,5.50
2022-08-26T17:40:41.783Z,6.20
2022-08-26T17:43:45.898Z,5.32
2022-08-26T17:46:50.410Z,5.35
2022-08-26T17:49:54.230Z,5.43
2022-08-26T17:52:58.441Z,5.10
2022-08-26T17:56:08.968Z,5.50
2022-08-26T17:59:13.478Z,5.60
2022-08-26T18:02:17.641Z,7.15
2022-08-26T18:05:21.703Z,5.93
2022-08-26T18:08:25.560Z,7.07
2022-08-26T18:11:30.097Z,6.35
2022-08-26T18:14:34.306Z,6.60
2022-08-26T18:17:39.251Z,6.13
2022-08-26T18:20:45.129Z,6.00
2022-08-26T18:23:50.505Z,6.60
2022-08-26T18:26:54.398Z,6.05
2022-08-26T18:29:58.308Z,6.30
2022-08-26T18:33:03.023Z,5.78
2022-08-26T18:36:07.392Z,6.32
2022-08-26T18:39:13.391Z,6.10
2022-08-26T18:42:18.065Z,6.75
2022-08-26T18:45:23.166Z,6.55
2022-08-26T18:48:27.254Z,6.80
2022-08-26T18:51:33.613Z,6.63
2022-08-26T18:54:37.817Z,6.78
2022-08-26T18:57:41.849Z,6.80
2022-08-26T19:00:45.960Z,7.93
2022-08-26T19:03:50.395Z,7.03
2022-08-26T19:06:54.409Z,7.60
2022-08-26T19:09:58.796Z,7.45
2022-08-26T19:13:03.505Z,7.95
2022-08-26T19:16:19.423Z,8.18
2022-08-26T19:19:24.076Z,8.70
2022-08-26T19:22:27.993Z,9.43
2022-08-26T19:25:32.237Z,8.55
2022-08-26T19:28:37.127Z,8.57
2022-08-26T19:31:42.173Z,7.97
2022-08-26T19:34:48.453Z,8.20
2022-08-26T19:37:52.836Z,8.13
2022-08-26T19:40:58.874Z,8.23
2022-08-26T19:44:04.142Z,8.82
2022-08-26T19:47:09.899Z,8.02
2022-08-26T19:50:15.777Z,8.60
2022-08-26T19:53:19.938Z,8.30
2022-08-26T19:56:25.204Z,8.32
2022-08-26T19:59:29.799Z,8.65
2022-08-26T20:02:36.589Z,8.23
2022-08-26T20:05:41.407Z,7.72
2022-08-26T20:08:46.133Z,7.55
2022-08-26T20:11:50.918Z,8.60
2022-08-26T20:14:55.588Z,7.93
2022-08-26T20:17:59.815Z,7.35
2022-08-26T20:21:22.723Z,7.55
2022-08-26T20:24:27.757Z,7.15
2022-08-26T20:27:38.307Z,8.48
2022-08-26T20:30:43.193Z,8.15
2022-08-26T20:33:48.156Z,8.13
2022-08-26T20:36:52.565Z,8.75
2022-08-26T20:39:56.752Z,8.30
2022-08-26T20:43:01.122Z,8.80
2022-08-26T20:46:08.317Z,8.75
2022-08-26T20:49:20.983Z,9.00
2022-08-26T20:52:25.194Z,9.20
2022-08-26T20:55:29.659Z,9.48
2022-08-26T20:58:34.626Z,9.30
2022-08-26T21:01:42.048Z,8.68
2022-08-26T21:04:47.343Z,8.70
2022-08-26T21:07:51.867Z,8.73
2022-08-26T21:10:57.111Z,8.70
2022-08-26T21:14:06.706Z,8.93
2022-08-26T21:17:20.005Z,8.20
2022-08-26T21:20:24.131Z,8.38
2022-08-26T21:23:29.363Z,8.38
2022-08-26T21:26:33.264Z,8.93
2022-08-26T21:29:37.452Z,9.32
2022-08-26T21:32:42.066Z,9.80
2022-08-26T21:35:53.639Z,9.65
2022-08-26T21:38:59.035Z,8.68
2022-08-26T21:42:03.203Z,8.27
2022-08-26T21:45:07.800Z,8.25
2022-08-26T21:48:11.964Z,9.18
2022-08-26T21:51:18.189Z,8.70
2022-08-26T21:54:22.620Z,8.70
2022-08-26T21:57:27.928Z,9.52
2022-08-26T22:00:32.163Z,9.95
2022-08-26T22:03:47.022Z,9.65
2022-08-26T22:06:54.287Z,10.45
2022-08-26T22:09:58.666Z,10.82
2022-08-26T22:13:02.935Z,10.30
2022-08-26T22:16:07.970Z,9.55
2022-08-26T22:19:13.729Z,9.38
2022-08-26T22:22:21.008Z,8.60
2022-08-26T22:25:25.582Z,8.70
2022-08-26T22:28:29.694Z,9.10
2022-08-26T22:31:36.960Z,9.02
2022-08-26T22:34:42.789Z,8.50
2022-08-26T22:37:46.955Z,8.27
2022-08-26T22:40:57.672Z,8.38
2022-08-26T22:44:02.916Z,8.88
2022-08-26T22:47:07.256Z,9.10
2022-08-26T22:50:11.255Z,8.00
2022-08-26T22:53:16.679Z,7.68
2022-08-26T22:56:21.389Z,7.75
2022-08-26T22:59:25.330Z,7.22
2022-08-26T23:02:29.301Z,7.47
2022-08-26T23:05:33.088Z,7.28
2022-08-26T23:08:38.800Z,6.78
2022-08-26T23:11:43.733Z,6.72
2022-08-26T23:14:48.922Z,7.35
2022-08-26T23:18:09.118Z,7.45
2022-08-26T23:21:12.957Z,7.35
2022-08-26T23:24:17.425Z,7.20
2022-08-26T23:27:21.429Z,6.97
2022-08-26T23:30:27.873Z,6.95
2022-08-26T23:33:52.132Z,7.25
2022-08-26T23:36:56.937Z,7.40
2022-08-26T23:40:08.440Z,7.35
2022-08-26T23:43:12.452Z,8.50
2022-08-26T23:46:16.591Z,8.13
2022-08-26T23:49:20.642Z,8.88
2022-08-26T23:52:43.562Z,8.38
2022-08-26T23:55:49.649Z,8.30
2022-08-26T23:58:54.737Z,8.60
